Time;durP1;ratioP1;P1;durP2;ratioP2;P2;SDS_P1;SDS_P2;PMS_P1;PMS_P2;Temp;Humidity;BMP_temperature;BMP_pressure;BME280_temperature;BME280_humidity;BME280_pressure;Samples;Min_cycle;Max_cycle;Signal;HPM_P1;HPM_P2
2022/10/04 00:01:19;;;;;;;;;;;;;;;;;;5037515;28;19912;-75
2022/10/04 00:03:44;;;;;;;;;;;;;;;;;;5037579;28;19913;-76
2022/10/04 00:06:10;;;;;;;;;;;;;;;;;;5037536;28;19920;-77
2022/10/04 00:08:35;;;;;;;;;;;;;;;;;;5055175;28;19959;-78
2022/10/04 00:11:00;;;;;;;;;;;;;;;;;;5055341;28;20384;-77
2022/10/04 00:13:26;;;;;;;;;;;;;;;;;;5055022;28;19973;-77
2022/10/04 00:15:51;;;;;;;;;;;;;;;;;;5037489;28;19958;-78
2022/10/04 00:18:16;;;;;;;;;;;;;;;;;;5070152;28;19916;-76
2022/10/04 00:20:41;;;;;;;;;;;;;;;;;;5057140;28;19923;-78
2022/10/04 00:23:07;;;;;;;;;;;;;;;;;;5040387;28;20399;-77
2022/10/04 00:25:33;;;;;;;;;;;;;;;;;;5056416;28;19912;-79
2022/10/04 00:27:58;;;;;;;;;;;;;;;;;;5074902;28;20027;-76
2022/10/04 00:30:23;;;;;;;;;;;;;;;;;;5075020;28;19919;-76
2022/10/04 00:32:49;;;;;;;;;;;;;;;;;;5056841;28;20376;-76
2022/10/04 00:35:14;;;;;;;;;;;;;;;;;;5073865;28;19909;-78
2022/10/04 00:37:39;;;;;;;;;;;;;;;;;;5074820;28;20405;-77
2022/10/04 00:40:05;;;;;;;;;;;;;;;;;;5056797;28;20421;-77
2022/10/04 00:42:30;;;;;;;;;;;;;;;;;;5074440;28;20314;-78
2022/10/04 00:44:55;;;;;;;;;;;;;;;;;;5074472;28;19988;-77
2022/10/04 00:47:21;;;;;;;;;;;;;;;;;;5040009;28;19917;-78
2022/10/04 00:49:46;;;;;;;;;;;;;;;;;;5040060;28;19968;-75
2022/10/04 00:52:11;;;;;;;;;;;;;;;;;;5055848;28;20318;-76
2022/10/04 00:54:40;;;;;;;;;;;;;;;;;;5074467;28;20018;-77
2022/10/04 00:57:06;;;;;;;;;;;;;;;;;;5074328;28;19917;-77
2022/10/04 00:59:31;;;;;;;;;;;;;;;;;;5056325;28;19920;-77
2022/10/04 01:01:56;;;;;;;;;;;;;;;;;;5074260;28;19913;-77
2022/10/04 01:04:22;;;;;;;;;;;;;;;;;;5039616;28;19920;-77
2022/10/04 01:06:47;;;;;;;;;;;;;;;;;;5056030;28;19917;-76
2022/10/04 01:09:13;;;;;;;;;;;;;;;;;;5064296;28;19919;-76
2022/10/04 01:11:39;;;;;;;;;;;;;;;;;;5019683;28;19972;-76
2022/10/04 01:14:04;;;;;;;;;;;;;;;;;;5054052;28;19921;-77
2022/10/04 01:16:29;;;;;;;;;;;;;;;;;;5053958;28;19919;-77
2022/10/04 01:18:55;;;;;;;;;;;;;;;;;;5019936;28;20380;-77
2022/10/04 01:21:20;;;;;;;;;;;;;;;;;;5053866;28;19913;-75
2022/10/04 01:23:46;;;;;;;;;;;;;;;;;;5035816;28;19963;-77
2022/10/04 01:26:11;;;;;;;;;;;;;;;;;;5063625;28;19913;-77
2022/10/04 01:28:37;;;;;;;;;;;;;;;;;;5073607;28;19912;-75
2022/10/04 01:31:02;;;;;;;;;;;;;;;;;;5055777;28;19962;-77
2022/10/04 01:33:28;;;;;;;;;;;;;;;;;;5055555;28;20402;-78
2022/10/04 01:35:54;;;;;;;;;;;;;;;;;;5073415;28;19918;-76
2022/10/04 01:38:19;;;;;;;;;;;;;;;;;;5054937;28;19920;-76
2022/10/04 01:40:44;;;;;;;;;;;;;;;;;;5072542;28;19913;-78
2022/10/04 01:43:10;;;;;;;;;;;;;;;;;;5073191;28;19912;-79
2022/10/04 01:45:35;;;;;;;;;;;;;;;;;;5073392;28;19919;-76
2022/10/04 01:48:00;;;;;;;;;;;;;;;;;;5038806;28;20398;-78
2022/10/04 01:50:26;;;;;;;;;;;;;;;;;;5055660;28;19920;-77
2022/10/04 01:52:51;;;;;;;;;;;;;;;;;;5055432;28;20008;-76
2022/10/04 01:55:16;;;;;;;;;;;;;;;;;;5073388;28;19917;-77
2022/10/04 01:57:42;;;;;;;;;;;;;;;;;;5055458;28;19912;-78
2022/10/04 02:00:07;;;;;;;;;;;;;;;;;;5055533;28;20321;-78
2022/10/04 02:02:34;;;;;;;;;;;;;;;;;;5040679;28;19916;-77
2022/10/04 02:04:59;;;;;;;;;;;;;;;;;;5040128;28;19936;-78
2022/10/04 02:07:26;;;;;;;;;;;;;;;;;;5040137;28;20375;-77
2022/10/04 02:09:51;;;;;;;;;;;;;;;;;;5073660;28;19919;-78
2022/10/04 02:12:17;;;;;;;;;;;;;;;;;;5073073;28;19912;-77
2022/10/04 02:14:43;;;;;;;;;;;;;;;;;;5054215;28;20291;-77
2022/10/04 02:17:09;;;;;;;;;;;;;;;;;;5055149;28;20398;-78
2022/10/04 02:19:34;;;;;;;;;;;;;;;;;;5072859;28;19951;-78
2022/10/04 02:22:00;;;;;;;;;;;;;;;;;;5054954;28;20336;-78
2022/10/04 02:24:30;;;;;;;;;;;;;;;;;;5055215;28;19912;-78
2022/10/04 02:26:55;;;;;;;;;;;;;;;;;;5072565;28;20459;-77
2022/10/04 02:29:20;;;;;;;;;;;;;;;;;;5072723;28;20287;-77
2022/10/04 02:34:30;;;;;;;;;;;;;;;;;;5053915;28;19916;-76
2022/10/04 02:36:55;;;;;;;;;;;;;;;;;;5055035;28;19915;-77
2022/10/04 02:39:21;;;;;;;;;;;;;;;;;;5072570;28;20007;-78
2022/10/04 02:41:46;;;;;;;;;;;;;;;;;;5072687;28;19959;-78
2022/10/04 02:44:11;;;;;;;;;;;;;;;;;;5072502;28;19920;-77
2022/10/04 02:46:37;;;;;;;;;;;;;;;;;;5072379;28;19923;-77
2022/10/04 02:49:02;;;;;;;;;;;;;;;;;;5061804;28;19916;-77
2022/10/04 02:51:27;;;;;;;;;;;;;;;;;;5034453;28;19963;-78
2022/10/04 02:53:53;;;;;;;;;;;;;;;;;;5052328;28;20390;-78
2022/10/04 02:56:18;;;;;;;;;;;;;;;;;;5052064;28;20475;-76
2022/10/04 02:58:44;;;;;;;;;;;;;;;;;;5053204;28;20288;-77
2022/10/04 03:01:09;;;;;;;;;;;;;;;;;;5053606;28;19913;-78
2022/10/04 03:03:35;;;;;;;;;;;;;;;;;;5038638;28;20351;-77
2022/10/04 03:06:01;;;;;;;;;;;;;;;;;;5049106;28;19912;-78
2022/10/04 03:08:26;;;;;;;;;;;;;;;;;;5036344;28;20284;-77
2022/10/04 03:10:51;;;;;;;;;;;;;;;;;;5052352;28;20335;-78
2022/10/04 03:13:17;;;;;;;;;;;;;;;;;;5034298;28;19932;-78
2022/10/04 03:15:42;;;;;;;;;;;;;;;;;;5034376;28;20000;-78
2022/10/04 03:18:08;;;;;;;;;;;;;;;;;;5052312;28;19966;-79
2022/10/04 03:20:33;;;;;;;;;;;;;;;;;;5052700;28;19912;-78
2022/10/04 03:22:58;;;;;;;;;;;;;;;;;;5060207;28;19919;-79
2022/10/04 03:25:25;;;;;;;;;;;;;;;;;;5054447;28;20414;-77
2022/10/04 03:27:53;;;;;;;;;;;;;;;;;;5053904;28;20386;-77
2022/10/04 03:30:21;;;;;;;;;;;;;;;;;;5072080;28;19919;-77
2022/10/04 03:32:47;;;;;;;;;;;;;;;;;;5072743;28;19919;-78
2022/10/04 03:35:12;;;;;;;;;;;;;;;;;;5054661;28;20283;-76
2022/10/04 03:37:37;;;;;;;;;;;;;;;;;;5072921;28;19912;-77
2022/10/04 03:40:03;;;;;;;;;;;;;;;;;;5034825;28;19913;-80
2022/10/04 03:42:28;;;;;;;;;;;;;;;;;;5053394;28;19913;-77
2022/10/04 03:44:54;;;;;;;;;;;;;;;;;;5035123;28;20364;-78
2022/10/04 03:47:19;;;;;;;;;;;;;;;;;;5052240;28;19913;-76
2022/10/04 03:49:44;;;;;;;;;;;;;;;;;;5034004;28;19995;-78
2022/10/04 03:52:10;;;;;;;;;;;;;;;;;;5051636;28;19912;-79
2022/10/04 03:54:35;;;;;;;;;;;;;;;;;;5052282;28;19996;-79
2022/10/04 03:57:01;;;;;;;;;;;;;;;;;;5040846;28;19923;-78
2022/10/04 03:59:26;;;;;;;;;;;;;;;;;;5071588;28;19916;-78
2022/10/04 04:01:51;;;;;;;;;;;;;;;;;;5075222;28;19918;-78
2022/10/04 04:04:17;;;;;;;;;;;;;;;;;;5074915;28;19989;-75
2022/10/04 04:06:42;;;;;;;;;;;;;;;;;;5057774;28;19977;-77
2022/10/04 04:09:07;;;;;;;;;;;;;;;;;;5075226;28;19919;-78
2022/10/04 04:11:33;;;;;;;;;;;;;;;;;;5075461;28;19940;-78
2022/10/04 04:13:58;;;;;;;;;;;;;;;;;;5074414;28;19912;-78
2022/10/04 04:16:27;;;;;;;;;;;;;;;;;;5057335;28;19917;-79
2022/10/04 04:18:52;;;;;;;;;;;;;;;;;;5075278;28;20387;-77
2022/10/04 04:21:17;;;;;;;;;;;;;;;;;;5074802;28;20007;-80
2022/10/04 04:23:43;;;;;;;;;;;;;;;;;;5074686;28;19970;-78
2022/10/04 04:26:08;;;;;;;;;;;;;;;;;;5074767;28;20433;-76
2022/10/04 04:28:35;;;;;;;;;;;;;;;;;;5074851;28;19922;-78
2022/10/04 04:31:00;;;;;;;;;;;;;;;;;;5073947;28;19920;-79
2022/10/04 04:33:26;;;;;;;;;;;;;;;;;;5074257;28;19919;-78
2022/10/04 04:35:51;;;;;;;;;;;;;;;;;;5040052;28;19981;-77
2022/10/04 04:38:20;;;;;;;;;;;;;;;;;;5074700;28;19999;-77
2022/10/04 04:41:13;;;;;;;;;;;;;;;;;;5059116;28;20007;-80
2022/10/04 04:43:38;;;;;;;;;;;;;;;;;;5074814;28;19952;-78
2022/10/04 04:46:03;;;;;;;;;;;;;;;;;;5056922;28;20403;-76
2022/10/04 04:48:30;;;;;;;;;;;;;;;;;;5055531;28;20421;-78
2022/10/04 04:50:55;;;;;;;;;;;;;;;;;;5074392;28;19912;-78
2022/10/04 04:53:21;;;;;;;;;;;;;;;;;;5056402;28;20379;-78
2022/10/04 04:55:47;;;;;;;;;;;;;;;;;;5074125;28;20299;-78
2022/10/04 04:58:12;;;;;;;;;;;;;;;;;;5074536;28;19909;-75
2022/10/04 05:00:37;;;;;;;;;;;;;;;;;;5074255;28;20003;-78
2022/10/04 05:03:03;;;;;;;;;;;;;;;;;;5074347;28;20436;-77
2022/10/04 05:05:29;;;;;;;;;;;;;;;;;;5055348;28;19912;-78
2022/10/04 05:07:54;;;;;;;;;;;;;;;;;;5073806;28;19916;-78
2022/10/04 05:10:20;;;;;;;;;;;;;;;;;;5056040;28;19920;-80
2022/10/04 05:12:45;;;;;;;;;;;;;;;;;;5056495;28;19916;-78
2022/10/04 05:15:11;;;;;;;;;;;;;;;;;;5056153;28;19913;-77
2022/10/04 05:17:36;;;;;;;;;;;;;;;;;;5073763;28;20031;-78
2022/10/04 05:20:01;;;;;;;;;;;;;;;;;;5022779;28;19912;-78
2022/10/04 05:22:27;;;;;;;;;;;;;;;;;;5073684;28;20400;-78
2022/10/04 05:24:52;;;;;;;;;;;;;;;;;;5054867;28;19917;-76
2022/10/04 05:27:18;;;;;;;;;;;;;;;;;;5056082;28;19916;-77
2022/10/04 05:29:43;;;;;;;;;;;;;;;;;;5056034;28;19935;-76
2022/10/04 05:32:08;;;;;;;;;;;;;;;;;;5073415;28;19965;-78
2022/10/04 05:34:34;;;;;;;;;;;;;;;;;;5039037;28;20375;-78
2022/10/04 05:36:59;;;;;;;;;;;;;;;;;;5073601;28;20379;-78
2022/10/04 05:39:25;;;;;;;;;;;;;;;;;;5072995;28;19989;-78
2022/10/04 05:41:50;;;;;;;;;;;;;;;;;;5072339;28;19915;-79
2022/10/04 05:44:15;;;;;;;;;;;;;;;;;;5038198;28;19913;-78
2022/10/04 05:46:41;;;;;;;;;;;;;;;;;;5072756;28;20456;-77
2022/10/04 05:49:07;;;;;;;;;;;;;;;;;;5072809;28;20003;-78
2022/10/04 05:51:36;;;;;;;;;;;;;;;;;;5038436;28;19952;-78
2022/10/04 05:54:01;;;;;;;;;;;;;;;;;;5055039;28;19909;-78
2022/10/04 05:56:27;;;;;;;;;;;;;;;;;;5038248;28;20298;-78
2022/10/04 05:58:52;;;;;;;;;;;;;;;;;;5071965;28;19976;-81
2022/10/04 06:01:21;;;;;;;;;;;;;;;;;;5047862;28;19925;-78
2022/10/04 06:03:46;;;;;;;;;;;;;;;;;;5072469;28;19916;-76
2022/10/04 06:06:12;;;;;;;;;;;;;;;;;;5054677;28;19919;-77
2022/10/04 06:08:37;;;;;;;;;;;;;;;;;;5072442;28;19966;-77
2022/10/04 06:11:03;;;;;;;;;;;;;;;;;;5054954;28;19916;-79
2022/10/04 06:13:30;;;;;;;;;;;;;;;;;;5071746;28;21591;-76
2022/10/04 06:15:56;;;;;;;;;;;;;;;;;;5053480;28;20058;-77
2022/10/04 06:18:21;;;;;;;;;;;;;;;;;;5073571;28;19912;-77
2022/10/04 06:20:46;;;;;;;;;;;;;;;;;;5056979;28;20371;-77
2022/10/04 06:23:12;;;;;;;;;;;;;;;;;;5075295;28;19942;-79
2022/10/04 06:25:37;;;;;;;;;;;;;;;;;;5073942;28;20386;-78
2022/10/04 06:28:03;;;;;;;;;;;;;;;;;;5072511;28;19932;-77
2022/10/04 06:30:28;;;;;;;;;;;;;;;;;;5072672;28;19916;-79
2022/10/04 06:32:53;;;;;;;;;;;;;;;;;;5072477;28;19959;-78
2022/10/04 06:35:19;;;;;;;;;;;;;;;;;;5037229;28;20375;-77
2022/10/04 06:37:44;;;;;;;;;;;;;;;;;;5070359;28;19916;-77
2022/10/04 06:40:09;;;;;;;;;;;;;;;;;;5030698;28;19977;-75
2022/10/04 06:42:35;;;;;;;;;;;;;;;;;;5068211;28;19913;-77
2022/10/04 06:45:01;;;;;;;;;;;;;;;;;;5045828;28;19927;-78
2022/10/04 06:47:26;;;;;;;;;;;;;;;;;;5063373;28;19917;-77
2022/10/04 06:49:51;;;;;;;;;;;;;;;;;;5045984;28;19913;-78
2022/10/04 06:52:17;;;;;;;;;;;;;;;;;;5054020;28;19913;-77
2022/10/04 06:54:42;;;;;;;;;;;;;;;;;;5052683;28;20055;-78
2022/10/04 06:57:07;;;;;;;;;;;;;;;;;;5045245;28;19916;-77
2022/10/04 06:59:34;;;;;;;;;;;;;;;;;;5062015;28;19943;-75
2022/10/04 07:01:59;;;;;;;;;;;;;;;;;;5042630;28;19966;-77
2022/10/04 07:04:24;;;;;;;;;;;;;;;;;;5068031;28;20387;-76
2022/10/04 07:06:50;;;;;;;;;;;;;;;;;;5054243;28;19917;-77
2022/10/04 07:09:15;;;;;;;;;;;;;;;;;;5072270;28;19954;-77
2022/10/04 07:11:42;;;;;;;;;;;;;;;;;;5071964;28;19947;-77
2022/10/04 07:14:07;;;;;;;;;;;;;;;;;;5071885;28;20007;-78
2022/10/04 07:16:33;;;;;;;;;;;;;;;;;;5037365;28;19958;-77
2022/10/04 07:18:58;;;;;;;;;;;;;;;;;;5072275;28;19927;-78
2022/10/04 07:21:25;;;;;;;;;;;;;;;;;;5067385;28;20390;-80
2022/10/04 07:23:50;;;;;;;;;;;;;;;;;;5052500;28;19956;-80
2022/10/04 07:26:15;;;;;;;;;;;;;;;;;;5020032;28;19939;-79
2022/10/04 07:31:26;;;;;;;;;;;;;;;;;;5034653;28;19913;-78
2022/10/04 07:33:51;;;;;;;;;;;;;;;;;;5052013;28;20317;-79
2022/10/04 07:36:16;;;;;;;;;;;;;;;;;;5054613;28;19920;-77
2022/10/04 07:38:42;;;;;;;;;;;;;;;;;;5058981;28;20363;-77
2022/10/04 07:41:07;;;;;;;;;;;;;;;;;;5075910;28;20521;-78
2022/10/04 07:43:33;;;;;;;;;;;;;;;;;;5075498;28;19962;-78
2022/10/04 07:46:00;;;;;;;;;;;;;;;;;;5058092;28;19912;-78
2022/10/04 07:48:26;;;;;;;;;;;;;;;;;;5075529;28;19923;-77
2022/10/04 07:50:51;;;;;;;;;;;;;;;;;;5026435;28;19909;-77
2022/10/04 07:53:17;;;;;;;;;;;;;;;;;;5075110;28;19912;-78
2022/10/04 07:55:42;;;;;;;;;;;;;;;;;;5037202;28;19921;-77
2022/10/04 07:58:08;;;;;;;;;;;;;;;;;;5055420;28;19912;-76
2022/10/04 08:00:34;;;;;;;;;;;;;;;;;;5037387;28;19943;-79
2022/10/04 08:02:59;;;;;;;;;;;;;;;;;;5020751;28;19920;-78
2022/10/04 08:05:25;;;;;;;;;;;;;;;;;;5036797;28;19914;-77
2022/10/04 08:07:50;;;;;;;;;;;;;;;;;;5020671;28;19917;-76
2022/10/04 08:10:16;;;;;;;;;;;;;;;;;;5046296;28;19966;-77
2022/10/04 08:12:43;;;;;;;;;;;;;;;;;;5057785;28;19912;-77
2022/10/04 08:15:08;;;;;;;;;;;;;;;;;;5057083;28;19986;-78
2022/10/04 08:17:33;;;;;;;;;;;;;;;;;;5057169;28;19995;-78
2022/10/04 08:19:59;;;;;;;;;;;;;;;;;;5074878;28;20011;-76
2022/10/04 08:22:25;;;;;;;;;;;;;;;;;;5074871;28;19912;-78
2022/10/04 08:24:50;;;;;;;;;;;;;;;;;;5056785;28;19912;-77
2022/10/04 08:27:16;;;;;;;;;;;;;;;;;;5074177;28;19963;-78
2022/10/04 08:29:41;;;;;;;;;;;;;;;;;;5074967;28;19913;-80
2022/10/04 08:32:07;;;;;;;;;;;;;;;;;;5081376;28;19923;-77
2022/10/04 08:34:32;;;;;;;;;;;;;;;;;;5059725;28;19919;-77
2022/10/04 08:36:58;;;;;;;;;;;;;;;;;;5063985;28;20368;-77
2022/10/04 08:39:23;;;;;;;;;;;;;;;;;;5036292;28;19917;-76
2022/10/04 08:41:49;;;;;;;;;;;;;;;;;;5053917;28;19917;-77
2022/10/04 08:44:14;;;;;;;;;;;;;;;;;;5065936;28;19913;-76
2022/10/04 08:46:41;;;;;;;;;;;;;;;;;;5055578;28;20437;-77
2022/10/04 08:49:06;;;;;;;;;;;;;;;;;;5056901;28;19959;-76
2022/10/04 08:51:32;;;;;;;;;;;;;;;;;;5074247;28;20139;-77
2022/10/04 08:53:57;;;;;;;;;;;;;;;;;;5073900;28;20387;-76
2022/10/04 08:56:22;;;;;;;;;;;;;;;;;;5073887;28;19952;-83
2022/10/04 08:58:48;;;;;;;;;;;;;;;;;;5074215;28;20436;-80
2022/10/04 09:01:13;;;;;;;;;;;;;;;;;;5053765;28;20375;-76
2022/10/04 09:03:39;;;;;;;;;;;;;;;;;;5050591;28;19913;-77
2022/10/04 09:06:04;;;;;;;;;;;;;;;;;;5057053;28;19939;-77
2022/10/04 09:08:29;;;;;;;;;;;;;;;;;;5065533;28;20402;-76
2022/10/04 09:10:56;;;;;;;;;;;;;;;;;;5051490;28;20311;-78
2022/10/04 09:13:21;;;;;;;;;;;;;;;;;;5027928;28;20291;-77
2022/10/04 09:15:46;;;;;;;;;;;;;;;;;;5068809;28;19916;-77
2022/10/04 09:18:12;;;;;;;;;;;;;;;;;;5053704;28;19913;-79
2022/10/04 09:20:39;;;;;;;;;;;;;;;;;;5030593;28;19908;-79
2022/10/04 09:23:04;;;;;;;;;;;;;;;;;;5064283;28;20019;-79
2022/10/04 09:25:30;;;;;;;;;;;;;;;;;;5048406;28;20363;-78
2022/10/04 09:27:55;;;;;;;;;;;;;;;;;;5039574;28;19917;-77
2022/10/04 09:30:21;;;;;;;;;;;;;;;;;;5056597;28;19999;-77
2022/10/04 09:32:47;;;;;;;;;;;;;;;;;;5066314;28;19963;-77
2022/10/04 09:35:12;;;;;;;;;;;;;;;;;;5053483;28;20012;-76
2022/10/04 09:37:38;;;;;;;;;;;;;;;;;;5053730;28;19913;-76
2022/10/04 09:40:05;;;;;;;;;;;;;;;;;;5053455;28;19913;-76
2022/10/04 09:42:30;;;;;;;;;;;;;;;;;;5053472;28;20386;-77
2022/10/04 09:44:56;;;;;;;;;;;;;;;;;;5036083;28;19913;-76
2022/10/04 09:47:23;;;;;;;;;;;;;;;;;;5054143;28;19927;-77
2022/10/04 09:49:49;;;;;;;;;;;;;;;;;;5036780;28;19913;-77
2022/10/04 09:52:15;;;;;;;;;;;;;;;;;;5022269;28;20318;-76
2022/10/04 09:54:43;;;;;;;;;;;;;;;;;;5065202;28;19927;-77
2022/10/04 09:57:09;;;;;;;;;;;;;;;;;;5061902;28;20024;-78
2022/10/04 09:59:36;;;;;;;;;;;;;;;;;;5066969;28;20362;-76
2022/10/04 10:02:01;;;;;;;;;;;;;;;;;;5056047;28;19997;-74
2022/10/04 10:04:27;;;;;;;;;;;;;;;;;;5052229;28;20506;-77
2022/10/04 10:06:52;;;;;;;;;;;;;;;;;;5043387;28;19920;-76
2022/10/04 10:09:17;;;;;;;;;;;;;;;;;;5064189;28;19912;-76
2022/10/04 10:14:28;;;;;;;;;;;;;;;;;;5055422;28;19912;-76
2022/10/04 10:16:53;;;;;;;;;;;;;;;;;;5049898;28;19916;-76
2022/10/04 10:19:18;;;;;;;;;;;;;;;;;;5042769;28;20339;-77
2022/10/04 10:21:44;;;;;;;;;;;;;;;;;;5061754;28;20378;-75
2022/10/04 10:24:10;;;;;;;;;;;;;;;;;;5049186;28;19912;-75
2022/10/04 10:26:35;;;;;;;;;;;;;;;;;;5050848;28;19921;-76
2022/10/04 10:29:01;;;;;;;;;;;;;;;;;;5036389;28;20346;-75
2022/10/04 10:31:26;;;;;;;;;;;;;;;;;;5070748;28;19913;-76
2022/10/04 10:33:52;;;;;;;;;;;;;;;;;;5063752;28;19913;-76
2022/10/04 10:36:20;;;;;;;;;;;;;;;;;;5052423;28;20049;-75
2022/10/04 10:38:45;;;;;;;;;;;;;;;;;;5021791;28;19913;-75
2022/10/04 10:41:10;;;;;;;;;;;;;;;;;;5050593;28;19920;-76
2022/10/04 10:43:36;;;;;;;;;;;;;;;;;;5024205;28;20011;-75
2022/10/04 10:46:04;;;;;;;;;;;;;;;;;;5062246;28;19916;-76
2022/10/04 10:48:30;;;;;;;;;;;;;;;;;;5036369;28;19924;-76
2022/10/04 10:50:58;;;;;;;;;;;;;;;;;;5054472;28;19912;-76
2022/10/04 10:53:24;;;;;;;;;;;;;;;;;;5060159;28;19958;-76
2022/10/04 10:55:49;;;;;;;;;;;;;;;;;;5053799;28;19917;-76
2022/10/04 10:58:14;;;;;;;;;;;;;;;;;;5070919;28;19919;-77
2022/10/04 11:00:40;;;;;;;;;;;;;;;;;;5039144;28;19913;-77
2022/10/04 11:03:05;;;;;;;;;;;;;;;;;;5033309;28;19935;-77
2022/10/04 11:05:31;;;;;;;;;;;;;;;;;;5022155;28;20276;-75
2022/10/04 11:07:56;;;;;;;;;;;;;;;;;;5028461;28;19940;-76
2022/10/04 11:10:21;;;;;;;;;;;;;;;;;;5030672;28;19913;-78
2022/10/04 11:12:47;;;;;;;;;;;;;;;;;;5050937;28;20394;-77
2022/10/04 11:15:15;;;;;;;;;;;;;;;;;;5069272;28;20311;-77
2022/10/04 11:17:40;;;;;;;;;;;;;;;;;;5060396;28;19913;-77
2022/10/04 11:20:05;;;;;;;;;;;;;;;;;;5043199;28;19920;-78
2022/10/04 11:22:31;;;;;;;;;;;;;;;;;;5050533;28;19963;-77
2022/10/04 11:24:56;;;;;;;;;;;;;;;;;;5040499;28;19913;-78
2022/10/04 11:27:23;;;;;;;;;;;;;;;;;;5040537;28;19916;-75
2022/10/04 11:29:49;;;;;;;;;;;;;;;;;;5040249;28;19913;-77
2022/10/04 11:32:17;;;;;;;;;;;;;;;;;;5051551;28;19919;-77
2022/10/04 11:34:42;;;;;;;;;;;;;;;;;;5059824;28;19917;-77
2022/10/04 11:37:08;;;;;;;;;;;;;;;;;;5072258;28;20765;-78
2022/10/04 11:39:33;;;;;;;;;;;;;;;;;;5055303;28;20019;-78
2022/10/04 11:41:59;;;;;;;;;;;;;;;;;;5048758;28;19960;-77
2022/10/04 11:44:28;;;;;;;;;;;;;;;;;;5070707;28;19921;-77
2022/10/04 11:46:53;;;;;;;;;;;;;;;;;;5030504;28;19996;-76
2022/10/04 11:49:19;;;;;;;;;;;;;;;;;;5068877;28;19916;-77
2022/10/04 11:51:46;;;;;;;;;;;;;;;;;;5054695;28;19920;-77
2022/10/04 11:54:12;;;;;;;;;;;;;;;;;;5048509;28;20148;-77
2022/10/04 11:56:37;;;;;;;;;;;;;;;;;;5057512;28;20359;-77
2022/10/04 11:59:02;;;;;;;;;;;;;;;;;;5044388;28;19917;-86
2022/10/04 12:01:29;;;;;;;;;;;;;;;;;;5056764;28;20023;-86
2022/10/04 12:03:55;;;;;;;;;;;;;;;;;;5046451;28;20371;-78
2022/10/04 12:06:21;;;;;;;;;;;;;;;;;;5050398;28;19913;-81
2022/10/04 12:08:47;;;;;;;;;;;;;;;;;;5072944;28;20436;-85
2022/10/04 12:11:13;;;;;;;;;;;;;;;;;;5029055;28;19924;-85
2022/10/04 12:13:38;;;;;;;;;;;;;;;;;;5036698;28;19913;-85
2022/10/04 12:16:04;;;;;;;;;;;;;;;;;;5029843;28;19934;-87
2022/10/04 12:18:31;;;;;;;;;;;;;;;;;;5070796;28;19913;-88
2022/10/04 12:20:57;;;;;;;;;;;;;;;;;;5069307;28;19916;-88
2022/10/04 12:23:22;;;;;;;;;;;;;;;;;;5029397;28;19973;-88
2022/10/04 12:25:48;;;;;;;;;;;;;;;;;;5056877;28;20295;-88
2022/10/04 12:28:14;;;;;;;;;;;;;;;;;;5034413;28;19920;-88
2022/10/04 12:30:40;;;;;;;;;;;;;;;;;;5020424;28;19992;-88
2022/10/04 12:33:06;;;;;;;;;;;;;;;;;;5040045;28;19972;-86
2022/10/04 12:35:34;;;;;;;;;;;;;;;;;;5043882;28;19920;-86
2022/10/04 12:38:00;;;;;;;;;;;;;;;;;;5035041;28;19917;-88
2022/10/04 12:40:25;;;;;;;;;;;;;;;;;;5020130;28;19939;-87
2022/10/04 12:42:51;;;;;;;;;;;;;;;;;;5035529;28;20094;-85
2022/10/04 12:45:18;;;;;;;;;;;;;;;;;;5025197;28;19913;-86
2022/10/04 12:47:43;;;;;;;;;;;;;;;;;;5068457;28;19970;-85
2022/10/04 12:50:09;;;;;;;;;;;;;;;;;;5038492;28;20224;-88
2022/10/04 12:52:34;;;;;;;;;;;;;;;;;;5031482;28;19912;-85
2022/10/04 12:55:00;;;;;;;;;;;;;;;;;;5045415;28;19917;-84
2022/10/04 12:57:25;;;;;;;;;;;;;;;;;;5020494;28;19920;-87
2022/10/04 12:59:51;;;;;;;;;;;;;;;;;;5049330;28;19919;-87
2022/10/04 13:02:19;;;;;;;;;;;;;;;;;;5029713;28;19943;-87
2022/10/04 13:04:45;;;;;;;;;;;;;;;;;;5049341;28;19912;-86
2022/10/04 13:07:11;;;;;;;;;;;;;;;;;;5054229;28;19992;-85
2022/10/04 13:09:36;;;;;;;;;;;;;;;;;;5053402;28;19914;-85
2022/10/04 13:12:02;;;;;;;;;;;;;;;;;;5025775;28;19955;-86
2022/10/04 13:14:28;;;;;;;;;;;;;;;;;;5041812;28;19931;-86
2022/10/04 13:16:56;;;;;;;;;;;;;;;;;;5061175;28;19912;-86
2022/10/04 13:19:22;;;;;;;;;;;;;;;;;;5077664;28;19940;-86
2022/10/04 13:21:47;;;;;;;;;;;;;;;;;;5058283;28;19966;-86
2022/10/04 13:24:13;;;;;;;;;;;;;;;;;;5039493;28;19976;-87
2022/10/04 13:26:38;;;;;;;;;;;;;;;;;;5031169;28;19976;-86
2022/10/04 13:29:05;;;;;;;;;;;;;;;;;;5044432;28;19976;-86
2022/10/04 13:31:34;;;;;;;;;;;;;;;;;;5024553;28;19913;-84
2022/10/04 13:33:59;;;;;;;;;;;;;;;;;;5040211;28;19951;-86
2022/10/04 13:36:24;;;;;;;;;;;;;;;;;;5068040;28;19913;-86
2022/10/04 13:38:50;;;;;;;;;;;;;;;;;;5032555;28;20547;-86
2022/10/04 13:41:15;;;;;;;;;;;;;;;;;;5045327;28;19936;-86
2022/10/04 13:43:41;;;;;;;;;;;;;;;;;;5038904;28;19909;-87
2022/10/04 13:46:06;;;;;;;;;;;;;;;;;;5056945;28;19912;-84
2022/10/04 13:48:32;;;;;;;;;;;;;;;;;;5043554;28;19916;-86
2022/10/04 13:50:59;;;;;;;;;;;;;;;;;;5059843;28;19913;-85
2022/10/04 13:58:55;;;;;;;;;;;;;;;;;;5056963;28;19928;-79
2022/10/04 14:01:21;;;;;;;;;;;;;;;;;;5038900;28;20294;-80
2022/10/04 14:03:46;;;;;;;;;;;;;;;;;;5036014;28;20275;-79
2022/10/04 14:06:12;;;;;;;;;;;;;;;;;;5035311;28;20050;-79
2022/10/04 14:08:37;;;;;;;;;;;;;;;;;;5017953;28;19923;-80
2022/10/04 14:11:07;;;;;;;;;;;;;;;;;;5027272;28;20315;-79
2022/10/04 14:13:33;;;;;;;;;;;;;;;;;;5007164;28;19969;-79
2022/10/04 14:15:58;;;;;;;;;;;;;;;;;;5022527;28;20367;-78
2022/10/04 14:18:24;;;;;;;;;;;;;;;;;;5011238;28;19909;-79
2022/10/04 14:20:49;;;;;;;;;;;;;;;;;;5041312;28;19990;-79
2022/10/04 14:23:15;;;;;;;;;;;;;;;;;;5020973;28;19913;-89
2022/10/04 14:25:40;;;;;;;;;;;;;;;;;;5009396;28;20023;-81
2022/10/04 14:28:05;;;;;;;;;;;;;;;;;;5058771;28;19963;-81
2022/10/04 14:30:31;;;;;;;;;;;;;;;;;;5059141;28;19964;-81
2022/10/04 14:32:56;;;;;;;;;;;;;;;;;;5052812;28;20375;-81
2022/10/04 14:35:22;;;;;;;;;;;;;;;;;;5038275;28;20332;-81
2022/10/04 14:37:48;;;;;;;;;;;;;;;;;;5030190;28;20013;-80
2022/10/04 14:40:13;;;;;;;;;;;;;;;;;;5030693;28;19913;-80
2022/10/04 14:42:38;;;;;;;;;;;;;;;;;;5063890;28;20053;-79
2022/10/04 14:45:04;;;;;;;;;;;;;;;;;;5040874;28;20008;-80
2022/10/04 14:47:30;;;;;;;;;;;;;;;;;;5044041;28;19939;-80
2022/10/04 14:49:56;;;;;;;;;;;;;;;;;;5037881;28;19913;-79
2022/10/04 14:52:21;;;;;;;;;;;;;;;;;;5035141;28;19967;-80
2022/10/04 14:54:47;;;;;;;;;;;;;;;;;;5053742;28;19912;-80
2022/10/04 14:57:12;;;;;;;;;;;;;;;;;;5065619;28;20442;-80
2022/10/04 14:59:38;;;;;;;;;;;;;;;;;;5036289;28;20434;-80
2022/10/04 15:02:06;;;;;;;;;;;;;;;;;;5038967;28;19912;-81
2022/10/04 15:04:32;;;;;;;;;;;;;;;;;;5029898;28;20314;-80
2022/10/04 15:06:57;;;;;;;;;;;;;;;;;;5026983;28;20023;-81
2022/10/04 15:09:22;;;;;;;;;;;;;;;;;;5056472;28;20387;-81
2022/10/04 15:11:53;;;;;;;;;;;;;;;;;;5019621;28;19917;-82
2022/10/04 15:14:20;;;;;;;;;;;;;;;;;;5009105;28;19917;-82
2022/10/04 15:16:46;;;;;;;;;;;;;;;;;;5022829;28;19920;-82
2022/10/04 15:19:11;;;;;;;;;;;;;;;;;;5038671;28;19913;-81
2022/10/04 15:21:37;;;;;;;;;;;;;;;;;;5039242;28;19917;-82
2022/10/04 15:24:03;;;;;;;;;;;;;;;;;;5020547;28;19984;-82
2022/10/04 15:26:28;;;;;;;;;;;;;;;;;;5034098;28;19975;-81
2022/10/04 15:28:55;;;;;;;;;;;;;;;;;;5007889;28;20303;-82
2022/10/04 15:31:21;;;;;;;;;;;;;;;;;;5037761;28;19916;-81
2022/10/04 15:33:46;;;;;;;;;;;;;;;;;;5040701;28;20343;-82
2022/10/04 15:36:12;;;;;;;;;;;;;;;;;;5018220;28;19944;-85
2022/10/04 15:38:37;;;;;;;;;;;;;;;;;;5032043;28;19913;-82
2022/10/04 15:41:03;;;;;;;;;;;;;;;;;;5025299;28;20383;-82
2022/10/04 15:43:28;;;;;;;;;;;;;;;;;;5037926;28;20015;-81
2022/10/04 15:45:54;;;;;;;;;;;;;;;;;;5063233;28;20372;-82
2022/10/04 15:48:19;;;;;;;;;;;;;;;;;;5060762;28;20448;-84
2022/10/04 15:50:45;;;;;;;;;;;;;;;;;;5074073;28;19912;-82
2022/10/04 15:53:10;;;;;;;;;;;;;;;;;;5039516;28;19936;-83
2022/10/04 15:55:35;;;;;;;;;;;;;;;;;;5044365;28;19935;-82
2022/10/04 15:58:01;;;;;;;;;;;;;;;;;;5049439;28;19919;-84
2022/10/04 16:00:27;;;;;;;;;;;;;;;;;;5059715;28;19920;-84
2022/10/04 16:02:52;;;;;;;;;;;;;;;;;;5069582;28;19913;-83
2022/10/04 16:05:18;;;;;;;;;;;;;;;;;;5040267;28;20467;-83
2022/10/04 16:07:45;;;;;;;;;;;;;;;;;;5065026;28;20011;-83
2022/10/04 16:10:10;;;;;;;;;;;;;;;;;;5068576;28;20391;-83
2022/10/04 16:12:38;;;;;;;;;;;;;;;;;;5058319;28;19965;-83
2022/10/04 16:15:03;;;;;;;;;;;;;;;;;;5071222;28;19913;-83
2022/10/04 16:17:29;;;;;;;;;;;;;;;;;;5063914;28;19919;-82
2022/10/04 16:19:54;;;;;;;;;;;;;;;;;;5059461;28;20380;-82
2022/10/04 16:22:21;;;;;;;;;;;;;;;;;;5035817;28;19916;-81
2022/10/04 16:24:48;;;;;;;;;;;;;;;;;;5060500;28;19959;-83
2022/10/04 16:27:14;;;;;;;;;;;;;;;;;;5073227;28;19917;-83
2022/10/04 16:29:39;;;;;;;;;;;;;;;;;;5047307;28;19916;-82
2022/10/04 16:32:05;;;;;;;;;;;;;;;;;;5046684;28;20355;-83
2022/10/04 16:34:30;;;;;;;;;;;;;;;;;;5064254;28;20334;-82
2022/10/04 16:36:55;;;;;;;;;;;;;;;;;;5038169;28;19965;-84
2022/10/04 16:42:05;;;;;;;;;;;;;;;;;;5068637;28;19912;-83
2022/10/04 16:44:30;;;;;;;;;;;;;;;;;;5058781;28;19912;-82
2022/10/04 16:46:56;;;;;;;;;;;;;;;;;;5057185;28;20272;-83
2022/10/04 16:49:21;;;;;;;;;;;;;;;;;;5036541;28;19913;-82
2022/10/04 16:51:47;;;;;;;;;;;;;;;;;;5051653;28;19919;-83